createdAt,value
2024-02-14T00:01:49.789Z,9.88
2024-02-14T00:04:51.526Z,8.53
2024-02-14T00:07:53.397Z,6.77
2024-02-14T00:10:55.190Z,6.47
2024-02-14T00:13:57.764Z,6.50
2024-02-14T00:17:00.646Z,7.07
2024-02-14T00:20:04.288Z,7.90
2024-02-14T00:23:06.239Z,6.87
2024-02-14T00:26:07.984Z,9.25
2024-02-14T00:29:09.751Z,5.70
2024-02-14T00:32:12.866Z,7.75
2024-02-14T00:35:15.049Z,7.97
2024-02-14T00:38:17.087Z,6.47
2024-02-14T00:41:18.874Z,6.53
2024-02-14T00:44:20.790Z,7.60
2024-02-14T00:47:22.539Z,7.88
2024-02-14T00:50:24.364Z,13.87
2024-02-14T00:53:26.631Z,9.40
2024-02-14T00:56:28.447Z,13.63
2024-02-14T00:59:30.379Z,10.52
2024-02-14T01:02:32.237Z,11.85
2024-02-14T01:05:34.288Z,10.83
2024-02-14T01:08:37.495Z,11.50
2024-02-14T01:11:39.748Z,10.05
2024-02-14T01:14:41.636Z,9.85
2024-02-14T01:17:44.168Z,11.43
2024-02-14T01:20:46.057Z,9.77
2024-02-14T01:23:47.907Z,12.53
2024-02-14T01:26:51.931Z,13.27
2024-02-14T01:29:56.239Z,11.13
2024-02-14T01:32:58.085Z,9.73
2024-02-14T01:36:00.232Z,8.83
2024-02-14T01:39:02.127Z,11.40
2024-02-14T01:42:08.203Z,11.98
2024-02-14T01:45:10.430Z,8.98
2024-02-14T01:48:12.420Z,10.85
2024-02-14T01:51:14.975Z,10.40
2024-02-14T01:54:18.623Z,11.80
2024-02-14T01:57:21.072Z,13.90
2024-02-14T02:00:23.006Z,10.23
2024-02-14T02:03:26.026Z,9.10
2024-02-14T02:06:28.736Z,10.73
2024-02-14T02:09:32.684Z,10.10
2024-02-14T02:12:34.709Z,8.95
2024-02-14T02:15:36.463Z,10.45
2024-02-14T02:18:38.721Z,10.73
2024-02-14T02:21:40.697Z,9.00
2024-02-14T02:24:42.454Z,8.33
2024-02-14T02:27:44.214Z,10.77
2024-02-14T02:30:47.565Z,11.63
2024-02-14T02:33:50.691Z,9.40
2024-02-14T02:36:52.551Z,9.40
2024-02-14T02:39:54.758Z,8.80
2024-02-14T02:42:56.566Z,9.73
2024-02-14T02:45:59.204Z,8.80
2024-02-14T02:49:01.169Z,8.18
2024-02-14T02:52:04.095Z,8.37
2024-02-14T02:55:06.616Z,10.17
2024-02-14T02:58:08.628Z,8.70
2024-02-14T03:01:10.951Z,8.10
2024-02-14T03:04:14.683Z,11.27
2024-02-14T03:07:16.557Z,10.67
2024-02-14T03:10:22.344Z,10.10
2024-02-14T03:13:24.098Z,9.57
2024-02-14T03:16:26.006Z,9.80
2024-02-14T03:19:31.283Z,9.55
2024-02-14T03:22:33.092Z,12.67
2024-02-14T03:25:38.033Z,12.33
2024-02-14T03:28:40.307Z,11.63
2024-02-14T03:31:44.879Z,10.25
2024-02-14T03:34:46.703Z,13.57
2024-02-14T03:37:49.984Z,11.50
2024-02-14T03:40:51.899Z,11.17
2024-02-14T03:43:55.697Z,12.05
2024-02-14T03:46:57.669Z,10.27
2024-02-14T03:50:00.903Z,10.50
2024-02-14T03:53:04.606Z,10.30
2024-02-14T03:56:08.400Z,9.87
2024-02-14T03:59:10.209Z,11.18
2024-02-14T04:02:12.034Z,10.00
2024-02-14T04:05:13.887Z,9.52
2024-02-14T04:08:19.098Z,8.43
2024-02-14T04:11:20.940Z,9.60
2024-02-14T04:14:22.765Z,7.97
2024-02-14T04:17:25.732Z,9.70
2024-02-14T04:20:27.804Z,9.90
2024-02-14T04:23:29.696Z,9.53
2024-02-14T04:26:31.567Z,10.83
2024-02-14T04:29:35.139Z,13.13
2024-02-14T04:32:37.450Z,10.20
2024-02-14T04:35:39.351Z,9.07
2024-02-14T04:38:42.089Z,13.43
2024-02-14T04:41:53.967Z,9.87
2024-02-14T04:44:59.673Z,9.77
2024-02-14T04:48:01.544Z,9.65
2024-02-14T04:51:05.554Z,10.07
2024-02-14T04:54:08.772Z,11.47
2024-02-14T04:57:10.686Z,10.93
2024-02-14T05:00:13.219Z,10.70
2024-02-14T05:03:15.150Z,10.30
2024-02-14T05:06:17.298Z,10.10
2024-02-14T05:09:19.444Z,10.57
2024-02-14T05:12:21.596Z,10.33
2024-02-14T05:15:23.543Z,10.50
2024-02-14T05:18:25.378Z,12.10
2024-02-14T05:21:28.380Z,13.85
2024-02-14T05:24:30.488Z,18.03
2024-02-14T05:27:32.437Z,19.63
2024-02-14T05:30:34.325Z,16.27
2024-02-14T05:33:37.048Z,12.65
2024-02-14T05:36:39.391Z,10.73
2024-02-14T05:39:41.155Z,13.27
2024-02-14T05:42:45.726Z,13.40
2024-02-14T05:45:48.645Z,14.07
2024-02-14T05:48:50.515Z,12.50
2024-02-14T05:51:54.397Z,11.73
2024-02-14T05:54:58.436Z,12.97
2024-02-14T05:58:00.615Z,15.17
2024-02-14T06:01:02.633Z,17.02
2024-02-14T06:04:04.784Z,23.20
2024-02-14T06:07:08.072Z,33.00
2024-02-14T06:10:10.740Z,47.10
2024-02-14T06:13:12.650Z,35.67
2024-02-14T06:16:15.179Z,104.53
2024-02-14T06:19:17.193Z,55.53
2024-02-14T06:22:19.024Z,33.60
2024-02-14T06:25:20.847Z,32.73
2024-02-14T06:28:22.721Z,47.47
2024-02-14T06:31:25.017Z,62.88
2024-02-14T06:34:29.005Z,73.35
2024-02-14T06:37:34.947Z,100.35
2024-02-14T06:40:41.624Z,55.00
2024-02-14T06:43:43.469Z,26.13
2024-02-14T06:46:45.697Z,15.90
2024-02-14T06:49:47.740Z,13.55
2024-02-14T06:52:50.033Z,15.45
2024-02-14T06:55:52.681Z,13.33
2024-02-14T06:59:02.505Z,14.03
2024-02-14T07:02:13.368Z,20.73
2024-02-14T07:05:17.460Z,15.65
2024-02-14T07:08:23.341Z,15.82
2024-02-14T07:11:26.651Z,14.27
2024-02-14T07:14:30.348Z,14.60
2024-02-14T07:17:34.729Z,13.82
2024-02-14T07:20:38.368Z,12.68
2024-02-14T07:23:43.128Z,11.75
2024-02-14T07:26:48.272Z,12.00
2024-02-14T07:29:52.644Z,11.93
2024-02-14T07:32:55.367Z,11.90
2024-02-14T07:35:57.995Z,11.25
2024-02-14T07:39:00.401Z,9.85
2024-02-14T07:42:04.097Z,13.00
2024-02-14T07:45:06.704Z,10.60
2024-02-14T07:48:09.727Z,10.02
2024-02-14T07:51:12.021Z,13.20
2024-02-14T07:54:25.518Z,12.20
2024-02-14T07:57:28.799Z,12.73
2024-02-14T08:00:30.653Z,14.50
2024-02-14T08:03:36.014Z,12.70
2024-02-14T08:06:42.114Z,11.73
2024-02-14T08:09:45.296Z,10.70
2024-02-14T08:12:48.641Z,10.93
2024-02-14T08:15:51.034Z,8.63
2024-02-14T08:19:00.045Z,10.68
2024-02-14T08:22:02.566Z,8.85
2024-02-14T08:25:04.679Z,8.48
2024-02-14T08:28:08.818Z,7.43
2024-02-14T08:31:15.523Z,10.57
2024-02-14T08:34:17.708Z,6.30
2024-02-14T08:37:19.679Z,7.88
2024-02-14T08:40:21.545Z,6.60
2024-02-14T08:43:26.190Z,6.60
2024-02-14T08:46:30.210Z,7.17
2024-02-14T08:49:32.050Z,8.93
2024-02-14T08:52:33.927Z,8.52
2024-02-14T08:55:37.827Z,7.03
2024-02-14T08:58:39.824Z,9.33
2024-02-14T09:01:41.911Z,6.77
2024-02-14T09:04:45.540Z,7.45
2024-02-14T09:07:47.626Z,7.70
2024-02-14T09:10:49.766Z,7.35
2024-02-14T09:13:55.390Z,7.20
2024-02-14T09:16:57.820Z,6.70
2024-02-14T09:19:59.621Z,8.38
2024-02-14T09:23:01.924Z,7.95
2024-02-14T09:26:04.091Z,5.72
2024-02-14T09:29:06.433Z,4.87
2024-02-14T09:32:09.115Z,6.17
2024-02-14T09:35:11.397Z,5.10
2024-02-14T09:38:15.912Z,8.63
2024-02-14T09:41:37.374Z,5.00
2024-02-14T09:44:40.251Z,5.17
2024-02-14T09:47:45.925Z,6.20
2024-02-14T09:50:49.993Z,7.45
2024-02-14T09:53:58.031Z,5.28
2024-02-14T09:57:00.598Z,6.50
2024-02-14T10:00:04.069Z,5.83
2024-02-14T10:03:07.866Z,7.33
2024-02-14T10:06:10.646Z,6.35
2024-02-14T10:09:20.369Z,7.07
2024-02-14T10:12:22.242Z,5.85
2024-02-14T10:15:24.115Z,8.07
2024-02-14T10:18:33.175Z,6.70
2024-02-14T10:21:35.069Z,9.15
2024-02-14T10:24:36.946Z,6.20
2024-02-14T10:27:39.966Z,6.93
2024-02-14T10:30:43.324Z,4.80
2024-02-14T10:33:45.723Z,4.87
2024-02-14T10:36:48.843Z,9.07
2024-02-14T10:39:54.542Z,6.05
2024-02-14T10:42:59.652Z,4.97
2024-02-14T10:46:08.938Z,5.47
2024-02-14T10:49:13.044Z,6.40
2024-02-14T10:52:19.081Z,5.70
2024-02-14T10:55:23.728Z,4.97
2024-02-14T10:58:29.310Z,5.82
2024-02-14T11:01:33.476Z,5.07
2024-02-14T11:04:35.831Z,6.13
2024-02-14T11:07:44.749Z,5.07
2024-02-14T11:10:55.150Z,5.63
2024-02-14T11:13:57.316Z,7.90
2024-02-14T11:17:00.781Z,5.00
2024-02-14T11:20:22.773Z,7.40
2024-02-14T11:23:25.915Z,6.03
2024-02-14T11:26:29.321Z,7.20
2024-02-14T11:29:34.109Z,7.78
2024-02-14T11:32:36.002Z,7.20
2024-02-14T11:35:43.511Z,11.17
2024-02-14T11:38:45.475Z,5.10
2024-02-14T11:41:47.310Z,5.30
2024-02-14T11:44:50.115Z,5.15
2024-02-14T11:47:52.111Z,5.13
2024-02-14T11:51:02.406Z,6.50
2024-02-14T11:54:08.754Z,4.80
2024-02-14T11:57:11.014Z,4.30
2024-02-14T12:00:13.497Z,6.05
2024-02-14T12:03:22.061Z,4.00
2024-02-14T12:06:24.348Z,5.83
2024-02-14T12:09:28.296Z,6.07
2024-02-14T12:12:31.339Z,6.22
2024-02-14T12:15:38.703Z,5.47
2024-02-14T12:18:41.311Z,5.17
2024-02-14T12:21:46.785Z,4.90
2024-02-14T12:24:49.301Z,4.65
2024-02-14T12:27:52.777Z,5.90
2024-02-14T12:30:57.786Z,6.10
2024-02-14T12:34:02.913Z,5.73
2024-02-14T12:37:06.687Z,6.13
2024-02-14T12:40:09.482Z,5.35
2024-02-14T12:43:12.969Z,5.72
2024-02-14T12:46:14.965Z,5.53
2024-02-14T12:49:19.256Z,5.87
2024-02-14T12:52:21.424Z,5.77
2024-02-14T12:56:08.861Z,6.20
2024-02-14T12:59:22.052Z,5.38
2024-02-14T13:02:23.845Z,6.40
2024-02-14T13:05:26.930Z,11.77
2024-02-14T13:08:29.170Z,9.50
2024-02-14T13:11:33.011Z,6.82
2024-02-14T13:14:34.915Z,7.95
2024-02-14T13:17:36.907Z,6.75
2024-02-14T13:20:40.178Z,8.83
2024-02-14T13:23:42.124Z,7.13
2024-02-14T13:26:44.010Z,5.82
2024-02-14T13:29:45.852Z,7.50
2024-02-14T13:32:48.175Z,6.75
2024-02-14T13:35:50.174Z,8.70
2024-02-14T13:38:52.078Z,7.80
2024-02-14T13:41:54.099Z,6.15
2024-02-14T13:44:56.108Z,6.97
2024-02-14T13:48:09.194Z,8.35
2024-02-14T13:51:11.354Z,7.20
2024-02-14T13:54:13.316Z,7.43
2024-02-14T13:57:15.679Z,7.07
2024-02-14T14:00:18.410Z,7.28
2024-02-14T14:03:20.297Z,6.10
2024-02-14T14:06:25.327Z,6.03
2024-02-14T14:09:27.808Z,5.63
2024-02-14T14:12:29.641Z,9.05
2024-02-14T14:15:33.935Z,6.15
2024-02-14T14:18:36.758Z,7.22
2024-02-14T14:21:39.545Z,6.53
2024-02-14T14:24:41.413Z,8.13
2024-02-14T14:27:44.194Z,7.72
2024-02-14T14:30:46.326Z,6.50
2024-02-14T14:33:48.303Z,8.10
2024-02-14T14:36:50.231Z,13.83
2024-02-14T14:39:52.015Z,16.17
2024-02-14T14:42:54.054Z,13.10
2024-02-14T14:45:58.252Z,12.60
2024-02-14T14:49:00.287Z,14.32
2024-02-14T14:52:05.519Z,16.83
2024-02-14T14:55:07.700Z,11.10
2024-02-14T14:58:14.752Z,8.65
2024-02-14T15:01:16.590Z,11.85
2024-02-14T15:04:21.087Z,9.07
2024-02-14T15:07:23.203Z,13.50
2024-02-14T15:10:25.553Z,12.37
2024-02-14T15:13:28.678Z,12.75
2024-02-14T15:16:31.693Z,9.45
2024-02-14T15:19:33.681Z,21.13
2024-02-14T15:22:35.568Z,29.60
2024-02-14T15:25:37.690Z,25.40
2024-02-14T15:28:42.839Z,17.63
2024-02-14T15:32:03.487Z,8.45
2024-02-14T15:35:06.072Z,8.05
2024-02-14T15:38:08.001Z,37.53
2024-02-14T15:41:10.751Z,11.80
2024-02-14T15:44:13.082Z,11.40
2024-02-14T15:47:15.157Z,8.90
2024-02-14T15:50:17.435Z,9.68
2024-02-14T15:53:20.191Z,15.43
2024-02-14T15:56:22.285Z,28.80
2024-02-14T15:59:24.070Z,22.20
2024-02-14T16:02:26.137Z,26.17
2024-02-14T16:05:29.071Z,24.15
2024-02-14T16:08:30.995Z,38.87
2024-02-14T16:11:33.142Z,59.00
2024-02-14T16:14:34.997Z,42.33
2024-02-14T16:17:37.078Z,18.48
2024-02-14T16:20:39.062Z,11.15
2024-02-14T16:23:41.932Z,11.07
2024-02-14T16:26:45.011Z,12.50
2024-02-14T16:29:46.922Z,12.95
2024-02-14T16:32:49.079Z,30.20
2024-02-14T16:35:51.188Z,32.80
2024-02-14T16:38:52.985Z,29.67
2024-02-14T16:41:54.902Z,33.40
2024-02-14T16:44:56.705Z,25.85
2024-02-14T16:47:58.827Z,17.23
2024-02-14T16:51:00.650Z,34.05
2024-02-14T16:54:02.545Z,31.03
2024-02-14T16:57:10.847Z,16.73
2024-02-14T17:00:14.492Z,14.02
2024-02-14T17:03:17.475Z,20.98
2024-02-14T17:06:20.623Z,22.80
2024-02-14T17:09:22.940Z,11.93
2024-02-14T17:12:24.929Z,16.10
2024-02-14T17:15:27.096Z,45.63
2024-02-14T17:18:30.548Z,55.63
2024-02-14T17:21:32.687Z,71.22
2024-02-14T17:24:34.725Z,37.20
2024-02-14T17:27:36.723Z,16.57
2024-02-14T17:30:40.244Z,17.15
2024-02-14T17:33:43.719Z,16.98
2024-02-14T17:36:46.127Z,18.30
2024-02-14T17:39:48.218Z,18.73
2024-02-14T17:42:51.323Z,18.70
2024-02-14T17:45:53.083Z,21.42
2024-02-14T17:48:56.282Z,17.75
2024-02-14T17:51:59.632Z,20.08
2024-02-14T17:55:04.956Z,17.53
2024-02-14T17:58:07.451Z,16.47
2024-02-14T18:01:10.546Z,22.08
2024-02-14T18:04:12.409Z,22.80
2024-02-14T18:07:15.088Z,25.92
2024-02-14T18:10:17.492Z,20.33
2024-02-14T18:13:19.271Z,18.73
2024-02-14T18:16:21.428Z,18.38
2024-02-14T18:19:23.332Z,21.27
2024-02-14T18:22:25.132Z,23.40
2024-02-14T18:25:26.876Z,23.73
2024-02-14T18:28:31.659Z,29.13
2024-02-14T18:31:33.511Z,52.08
2024-02-14T18:34:35.389Z,41.55
2024-02-14T18:37:37.417Z,41.75
2024-02-14T18:40:43.054Z,30.47
2024-02-14T18:43:44.900Z,26.17
2024-02-14T18:46:47.847Z,27.75
2024-02-14T18:49:50.077Z,22.33
2024-02-14T18:52:52.318Z,22.25
2024-02-14T18:55:56.422Z,20.20
2024-02-14T18:58:58.423Z,21.60
2024-02-14T19:02:00.503Z,18.45
2024-02-14T19:05:02.639Z,16.98
2024-02-14T19:08:05.324Z,20.55
2024-02-14T19:11:07.793Z,17.33
2024-02-14T19:14:09.790Z,21.27
2024-02-14T19:17:11.917Z,18.92
2024-02-14T19:20:13.804Z,29.45
2024-02-14T19:23:15.579Z,17.20
2024-02-14T19:26:17.574Z,16.13
2024-02-14T19:29:20.293Z,18.17
2024-02-14T19:32:22.186Z,27.45
2024-02-14T19:35:24.233Z,23.98
2024-02-14T19:38:26.423Z,27.55
2024-02-14T19:41:28.460Z,24.73
2024-02-14T19:44:30.257Z,25.30
2024-02-14T19:47:33.991Z,24.40
2024-02-14T19:50:35.900Z,23.98
2024-02-14T19:53:37.853Z,23.40
2024-02-14T19:56:39.727Z,24.37
2024-02-14T19:59:41.669Z,27.03
2024-02-14T20:02:43.661Z,28.73
2024-02-14T20:05:47.193Z,57.33
2024-02-14T20:08:49.533Z,40.88
2024-02-14T20:11:51.486Z,48.73
2024-02-14T20:14:53.660Z,44.80
2024-02-14T20:17:55.641Z,45.55
2024-02-14T20:20:58.674Z,41.25
2024-02-14T20:24:01.086Z,35.22
2024-02-14T20:27:04.664Z,31.57
2024-02-14T20:30:11.793Z,32.97
2024-02-14T20:33:13.938Z,33.38
2024-02-14T20:36:15.882Z,42.85
2024-02-14T20:39:17.959Z,39.92
2024-02-14T20:42:21.546Z,40.40
2024-02-14T20:45:24.864Z,33.77
2024-02-14T20:48:26.844Z,34.88
2024-02-14T20:51:29.354Z,38.63
2024-02-14T20:54:31.137Z,38.60
2024-02-14T20:57:34.233Z,39.20
2024-02-14T21:00:36.470Z,39.20
2024-02-14T21:03:38.583Z,31.42
2024-02-14T21:06:40.783Z,31.45
2024-02-14T21:09:45.908Z,32.45
2024-02-14T21:12:47.671Z,34.57
2024-02-14T21:15:49.716Z,32.80
2024-02-14T21:18:51.822Z,32.40
2024-02-14T21:21:53.654Z,32.58
2024-02-14T21:24:55.440Z,28.38
2024-02-14T21:27:57.482Z,33.83
2024-02-14T21:31:00.136Z,29.13
2024-02-14T21:34:03.648Z,33.45
2024-02-14T21:37:05.677Z,29.85
2024-02-14T21:40:08.938Z,30.10
2024-02-14T21:43:10.743Z,31.00
2024-02-14T21:46:12.490Z,29.53
2024-02-14T21:49:21.571Z,32.63
2024-02-14T21:52:23.781Z,36.22
2024-02-14T21:55:25.580Z,34.47
2024-02-14T21:58:27.359Z,36.60
2024-02-14T22:01:29.295Z,45.77
2024-02-14T22:04:31.650Z,48.55
2024-02-14T22:07:33.502Z,51.15
2024-02-14T22:10:35.813Z,41.80
2024-02-14T22:13:39.483Z,35.03
2024-02-14T22:16:41.433Z,37.10
2024-02-14T22:19:43.931Z,43.85
2024-02-14T22:22:45.762Z,44.25
2024-02-14T22:25:47.969Z,37.13
2024-02-14T22:28:50.090Z,36.20
2024-02-14T22:31:53.547Z,31.60
2024-02-14T22:34:55.375Z,30.70
2024-02-14T22:37:57.380Z,32.88
2024-02-14T22:40:59.137Z,35.33
2024-02-14T22:44:00.958Z,29.93
2024-02-14T22:47:02.718Z,27.40
2024-02-14T22:50:05.395Z,30.08
2024-02-14T22:53:07.240Z,33.55
2024-02-14T22:56:11.184Z,40.03
2024-02-14T22:59:13.062Z,34.10
2024-02-14T23:02:15.130Z,32.73
2024-02-14T23:05:21.255Z,28.45
2024-02-14T23:08:23.171Z,31.35
2024-02-14T23:11:27.374Z,30.00
2024-02-14T23:14:29.337Z,30.53
2024-02-14T23:17:32.277Z,30.97
2024-02-14T23:20:34.342Z,33.97
2024-02-14T23:23:36.418Z,28.60
2024-02-14T23:26:38.592Z,30.05
2024-02-14T23:29:40.434Z,29.70
2024-02-14T23:32:42.851Z,29.63
2024-02-14T23:35:44.915Z,29.90
2024-02-14T23:38:46.728Z,32.50
2024-02-14T23:41:48.548Z,35.22
2024-02-14T23:44:51.331Z,32.67
2024-02-14T23:47:55.074Z,31.30
2024-02-14T23:50:59.345Z,33.70
2024-02-14T23:54:01.536Z,32.78
2024-02-14T23:57:04.775Z,31.40
